sensor_id;sensor_type;location;lat;lon;timestamp;P1;durP1;ratioP1;P2;durP2;ratioP2
35243;SDS011;37916;52.160;21.066;2023-08-30T00:07:16;33.65;;;26.02;;
35243;SDS011;37916;52.160;21.066;2023-08-30T00:17:17;35.70;;;25.35;;
35243;SDS011;37916;52.160;21.066;2023-08-30T00:27:19;39.30;;;26.30;;
35243;SDS011;37916;52.160;21.066;2023-08-30T00:37:21;37.42;;;27.10;;
35243;SDS011;37916;52.160;21.066;2023-08-30T00:47:22;37.63;;;28.15;;
35243;SDS011;37916;52.160;21.066;2023-08-30T00:57:23;36.78;;;26.95;;
35243;SDS011;37916;52.160;21.066;2023-08-30T01:07:24;42.72;;;31.73;;
35243;SDS011;37916;52.160;21.066;2023-08-30T01:27:28;41.10;;;29.95;;
35243;SDS011;37916;52.160;21.066;2023-08-30T01:37:32;36.78;;;27.95;;
35243;SDS011;37916;52.160;21.066;2023-08-30T01:47:33;33.13;;;25.25;;
35243;SDS011;37916;52.160;21.066;2023-08-30T01:57:36;27.83;;;22.90;;
35243;SDS011;37916;52.160;21.066;2023-08-30T02:07:38;30.42;;;22.35;;
35243;SDS011;37916;52.160;21.066;2023-08-30T02:17:41;31.02;;;24.17;;
35243;SDS011;37916;52.160;21.066;2023-08-30T02:27:43;28.95;;;23.98;;
35243;SDS011;37916;52.160;21.066;2023-08-30T02:37:44;30.38;;;22.80;;
35243;SDS011;37916;52.160;21.066;2023-08-30T02:47:45;29.05;;;23.13;;
35243;SDS011;37916;52.160;21.066;2023-08-30T02:57:46;31.48;;;23.20;;
35243;SDS011;37916;52.160;21.066;2023-08-30T03:07:47;27.38;;;21.08;;
35243;SDS011;37916;52.160;21.066;2023-08-30T03:17:48;30.70;;;22.45;;
35243;SDS011;37916;52.160;21.066;2023-08-30T03:27:49;30.67;;;22.70;;
35243;SDS011;37916;52.160;21.066;2023-08-30T03:37:50;29.75;;;21.92;;
35243;SDS011;37916;52.160;21.066;2023-08-30T03:47:51;32.67;;;23.83;;
35243;SDS011;37916;52.160;21.066;2023-08-30T03:57:52;36.60;;;25.27;;
35243;SDS011;37916;52.160;21.066;2023-08-30T04:07:53;36.20;;;24.42;;
35243;SDS011;37916;52.160;21.066;2023-08-30T04:17:54;31.98;;;24.25;;
35243;SDS011;37916;52.160;21.066;2023-08-30T04:27:55;32.83;;;22.95;;
35243;SDS011;37916;52.160;21.066;2023-08-30T04:37:58;32.00;;;22.88;;
35243;SDS011;37916;52.160;21.066;2023-08-30T04:47:59;29.02;;;21.85;;
35243;SDS011;37916;52.160;21.066;2023-08-30T04:58:00;29.95;;;22.40;;
35243;SDS011;37916;52.160;21.066;2023-08-30T05:08:01;23.42;;;18.48;;
35243;SDS011;37916;52.160;21.066;2023-08-30T05:18:02;25.15;;;19.58;;
35243;SDS011;37916;52.160;21.066;2023-08-30T05:28:03;24.48;;;18.80;;
35243;SDS011;37916;52.160;21.066;2023-08-30T05:38:07;22.83;;;15.77;;
35243;SDS011;37916;52.160;21.066;2023-08-30T05:48:08;16.73;;;13.45;;
35243;SDS011;37916;52.160;21.066;2023-08-30T05:58:09;16.83;;;13.75;;
35243;SDS011;37916;52.160;21.066;2023-08-30T06:08:11;17.48;;;14.10;;
35243;SDS011;37916;52.160;21.066;2023-08-30T06:18:12;16.45;;;13.27;;
35243;SDS011;37916;52.160;21.066;2023-08-30T06:28:13;16.13;;;13.15;;
35243;SDS011;37916;52.160;21.066;2023-08-30T06:38:14;20.58;;;14.77;;
35243;SDS011;37916;52.160;21.066;2023-08-30T06:48:15;17.65;;;14.50;;
35243;SDS011;37916;52.160;21.066;2023-08-30T06:58:16;20.42;;;14.43;;
35243;SDS011;37916;52.160;21.066;2023-08-30T07:08:17;22.85;;;15.35;;
35243;SDS011;37916;52.160;21.066;2023-08-30T07:18:18;19.30;;;15.18;;
35243;SDS011;37916;52.160;21.066;2023-08-30T07:28:20;31.70;;;23.70;;
35243;SDS011;37916;52.160;21.066;2023-08-30T07:38:23;67.22;;;28.55;;
35243;SDS011;37916;52.160;21.066;2023-08-30T07:48:24;42.17;;;28.95;;
35243;SDS011;37916;52.160;21.066;2023-08-30T07:58:25;59.83;;;32.65;;
35243;SDS011;37916;52.160;21.066;2023-08-30T08:08:26;65.10;;;32.63;;
35243;SDS011;37916;52.160;21.066;2023-08-30T08:18:27;86.28;;;33.08;;
35243;SDS011;37916;52.160;21.066;2023-08-30T08:28:28;95.03;;;32.83;;
35243;SDS011;37916;52.160;21.066;2023-08-30T08:38:29;82.43;;;31.15;;
35243;SDS011;37916;52.160;21.066;2023-08-30T08:48:31;70.93;;;21.17;;
35243;SDS011;37916;52.160;21.066;2023-08-30T08:58:32;44.10;;;16.85;;
35243;SDS011;37916;52.160;21.066;2023-08-30T09:08:33;37.92;;;13.75;;
35243;SDS011;37916;52.160;21.066;2023-08-30T09:18:34;23.45;;;13.02;;
35243;SDS011;37916;52.160;21.066;2023-08-30T09:28:42;18.90;;;10.00;;
35243;SDS011;37916;52.160;21.066;2023-08-30T09:38:50;16.88;;;8.73;;
35243;SDS011;37916;52.160;21.066;2023-08-30T09:48:55;10.50;;;7.05;;
35243;SDS011;37916;52.160;21.066;2023-08-30T09:58:57;9.13;;;6.20;;
35243;SDS011;37916;52.160;21.066;2023-08-30T10:08:59;9.10;;;6.35;;
35243;SDS011;37916;52.160;21.066;2023-08-30T10:19:05;8.95;;;5.43;;
35243;SDS011;37916;52.160;21.066;2023-08-30T10:29:08;14.65;;;4.90;;
35243;SDS011;37916;52.160;21.066;2023-08-30T10:39:13;20.80;;;5.90;;
35243;SDS011;37916;52.160;21.066;2023-08-30T10:49:15;9.45;;;7.13;;
35243;SDS011;37916;52.160;21.066;2023-08-30T10:59:16;10.00;;;6.53;;
35243;SDS011;37916;52.160;21.066;2023-08-30T11:09:21;8.27;;;6.10;;
35243;SDS011;37916;52.160;21.066;2023-08-30T11:19:23;9.95;;;6.55;;
35243;SDS011;37916;52.160;21.066;2023-08-30T11:29:24;13.70;;;6.95;;
35243;SDS011;37916;52.160;21.066;2023-08-30T11:39:30;7.90;;;6.85;;
35243;SDS011;37916;52.160;21.066;2023-08-30T11:49:31;8.55;;;5.50;;
35243;SDS011;37916;52.160;21.066;2023-08-30T11:59:36;8.57;;;6.20;;
35243;SDS011;37916;52.160;21.066;2023-08-30T12:09:37;4.93;;;4.05;;
35243;SDS011;37916;52.160;21.066;2023-08-30T12:19:38;8.52;;;4.55;;
35243;SDS011;37916;52.160;21.066;2023-08-30T12:29:42;10.43;;;4.80;;
35243;SDS011;37916;52.160;21.066;2023-08-30T12:39:43;9.40;;;6.68;;
35243;SDS011;37916;52.160;21.066;2023-08-30T12:49:44;8.48;;;6.57;;
35243;SDS011;37916;52.160;21.066;2023-08-30T12:59:45;14.50;;;7.68;;
35243;SDS011;37916;52.160;21.066;2023-08-30T13:09:47;12.82;;;7.28;;
35243;SDS011;37916;52.160;21.066;2023-08-30T13:19:50;9.25;;;6.70;;
35243;SDS011;37916;52.160;21.066;2023-08-30T13:29:58;10.57;;;7.82;;
35243;SDS011;37916;52.160;21.066;2023-08-30T13:39:59;12.38;;;8.30;;
35243;SDS011;37916;52.160;21.066;2023-08-30T13:50:00;9.43;;;6.80;;
35243;SDS011;37916;52.160;21.066;2023-08-30T14:00:01;8.30;;;6.28;;
35243;SDS011;37916;52.160;21.066;2023-08-30T14:10:07;9.27;;;6.25;;
35243;SDS011;37916;52.160;21.066;2023-08-30T14:20:09;11.77;;;7.57;;
35243;SDS011;37916;52.160;21.066;2023-08-30T14:30:10;6.50;;;4.90;;
35243;SDS011;37916;52.160;21.066;2023-08-30T14:40:13;5.97;;;4.07;;
35243;SDS011;37916;52.160;21.066;2023-08-30T14:50:14;7.90;;;5.10;;
35243;SDS011;37916;52.160;21.066;2023-08-30T15:00:15;6.25;;;4.75;;
35243;SDS011;37916;52.160;21.066;2023-08-30T15:10:17;7.32;;;4.90;;
35243;SDS011;37916;52.160;21.066;2023-08-30T15:20:18;9.85;;;4.93;;
35243;SDS011;37916;52.160;21.066;2023-08-30T15:30:19;7.22;;;4.53;;
35243;SDS011;37916;52.160;21.066;2023-08-30T15:40:20;8.05;;;4.72;;
35243;SDS011;37916;52.160;21.066;2023-08-30T15:50:21;7.65;;;4.15;;
35243;SDS011;37916;52.160;21.066;2023-08-30T16:00:23;7.00;;;4.57;;
35243;SDS011;37916;52.160;21.066;2023-08-30T16:10:24;5.63;;;4.10;;
35243;SDS011;37916;52.160;21.066;2023-08-30T16:20:25;5.75;;;4.07;;
35243;SDS011;37916;52.160;21.066;2023-08-30T17:01:09;9.73;;;3.90;;
35243;SDS011;37916;52.160;21.066;2023-08-30T17:11:10;6.50;;;3.25;;
35243;SDS011;37916;52.160;21.066;2023-08-30T17:21:11;6.97;;;4.40;;
35243;SDS011;37916;52.160;21.066;2023-08-30T17:31:12;7.50;;;3.95;;
35243;SDS011;37916;52.160;21.066;2023-08-30T17:41:14;6.13;;;4.03;;
35243;SDS011;37916;52.160;21.066;2023-08-30T17:51:15;8.68;;;4.95;;
35243;SDS011;37916;52.160;21.066;2023-08-30T18:01:16;6.40;;;4.53;;
35243;SDS011;37916;52.160;21.066;2023-08-30T18:11:20;8.00;;;5.32;;
35243;SDS011;37916;52.160;21.066;2023-08-30T18:21:21;9.20;;;5.18;;
35243;SDS011;37916;52.160;21.066;2023-08-30T18:31:22;9.77;;;5.90;;
35243;SDS011;37916;52.160;21.066;2023-08-30T18:41:24;12.68;;;6.82;;
35243;SDS011;37916;52.160;21.066;2023-08-30T18:51:25;12.50;;;7.75;;
35243;SDS011;37916;52.160;21.066;2023-08-30T19:01:27;12.95;;;7.22;;
35243;SDS011;37916;52.160;21.066;2023-08-30T19:21:31;13.48;;;6.75;;
35243;SDS011;37916;52.160;21.066;2023-08-30T19:31:33;13.10;;;6.43;;
35243;SDS011;37916;52.160;21.066;2023-08-30T19:41:34;13.27;;;7.00;;
35243;SDS011;37916;52.160;21.066;2023-08-30T19:51:35;9.50;;;5.82;;
35243;SDS011;37916;52.160;21.066;2023-08-30T20:01:36;9.38;;;6.57;;
35243;SDS011;37916;52.160;21.066;2023-08-30T20:11:37;9.65;;;6.63;;
35243;SDS011;37916;52.160;21.066;2023-08-30T20:21:39;12.02;;;7.28;;
35243;SDS011;37916;52.160;21.066;2023-08-30T20:31:41;12.40;;;8.05;;
35243;SDS011;37916;52.160;21.066;2023-08-30T20:41:42;14.60;;;7.85;;
35243;SDS011;37916;52.160;21.066;2023-08-30T20:51:43;9.93;;;7.55;;
35243;SDS011;37916;52.160;21.066;2023-08-30T21:01:44;10.88;;;7.45;;
35243;SDS011;37916;52.160;21.066;2023-08-30T21:11:45;12.40;;;7.28;;
35243;SDS011;37916;52.160;21.066;2023-08-30T21:21:46;10.18;;;7.13;;
35243;SDS011;37916;52.160;21.066;2023-08-30T21:31:47;8.52;;;6.70;;
35243;SDS011;37916;52.160;21.066;2023-08-30T21:41:48;11.38;;;7.20;;
35243;SDS011;37916;52.160;21.066;2023-08-30T21:51:49;11.50;;;7.22;;
35243;SDS011;37916;52.160;21.066;2023-08-30T22:01:50;11.10;;;7.78;;
35243;SDS011;37916;52.160;21.066;2023-08-30T22:11:51;9.85;;;6.45;;
35243;SDS011;37916;52.160;21.066;2023-08-30T22:21:52;10.93;;;6.57;;
35243;SDS011;37916;52.160;21.066;2023-08-30T22:31:53;10.38;;;7.65;;
35243;SDS011;37916;52.160;21.066;2023-08-30T22:41:54;7.95;;;7.07;;
35243;SDS011;37916;52.160;21.066;2023-08-30T22:51:55;11.77;;;7.43;;
35243;SDS011;37916;52.160;21.066;2023-08-30T23:01:57;10.10;;;6.97;;
35243;SDS011;37916;52.160;21.066;2023-08-30T23:11:58;10.27;;;6.50;;
35243;SDS011;37916;52.160;21.066;2023-08-30T23:21:59;9.45;;;7.13;;
35243;SDS011;37916;52.160;21.066;2023-08-30T23:32:00;10.65;;;6.97;;
35243;SDS011;37916;52.160;21.066;2023-08-30T23:42:01;8.05;;;6.78;;
35243;SDS011;37916;52.160;21.066;2023-08-30T23:52:03;8.68;;;6.63;;
